createdAt,value
2017-07-10T00:00:40.257Z,41.35
2017-07-10T00:01:39.963Z,41.45
2017-07-10T00:02:40.313Z,41.35
2017-07-10T00:03:40.018Z,41.83
2017-07-10T00:04:40.046Z,41.83
2017-07-10T00:05:40.402Z,42.13
2017-07-10T00:06:40.116Z,42.13
2017-07-10T00:07:40.470Z,42.13
2017-07-10T00:08:40.166Z,42.22
2017-07-10T00:09:40.514Z,42.03
2017-07-10T00:10:40.547Z,42.22
2017-07-10T00:11:40.572Z,42.32
2017-07-10T00:12:40.275Z,42.41
2017-07-10T00:13:40.627Z,42.51
2017-07-10T00:14:40.334Z,42.41
2017-07-10T00:15:40.359Z,42.41
2017-07-10T00:16:40.711Z,42.41
2017-07-10T00:17:40.416Z,42.51
2017-07-10T00:18:40.763Z,42.68
2017-07-10T00:19:40.806Z,42.68
2017-07-10T00:20:40.825Z,42.4
2017-07-10T00:21:40.849Z,42.68
2017-07-10T00:22:40.553Z,42.59
2017-07-10T00:23:40.910Z,42.59
2017-07-10T00:24:40.933Z,42.68
2017-07-10T00:25:40.964Z,42.78
2017-07-10T00:26:40.987Z,42.78
2017-07-10T00:27:41.021Z,42.49
2017-07-10T00:28:41.046Z,42.78
2017-07-10T00:29:41.078Z,42.88
2017-07-10T00:30:41.101Z,42.68
2017-07-10T00:31:41.128Z,42.78
2017-07-10T00:32:41.156Z,42.78
2017-07-10T00:33:41.182Z,42.68
2017-07-10T00:34:40.891Z,42.68
2017-07-10T00:35:41.243Z,42.88
2017-07-10T00:36:40.940Z,43.37
2017-07-10T00:37:41.293Z,42.88
2017-07-10T00:38:40.997Z,43.07
2017-07-10T00:39:41.026Z,43.07
2017-07-10T00:40:41.377Z,43.17
2017-07-10T00:41:41.083Z,43.07
2017-07-10T00:42:41.108Z,43.07
2017-07-10T00:43:41.133Z,43.15
2017-07-10T00:44:41.486Z,42.96
2017-07-10T00:45:41.190Z,43.05
2017-07-10T00:46:41.540Z,42.96
2017-07-10T00:47:41.571Z,42.96
2017-07-10T00:48:41.272Z,42.96
2017-07-10T00:49:41.302Z,42.96
2017-07-10T00:50:41.651Z,42.96
2017-07-10T00:51:41.680Z,42.96
2017-07-10T00:52:41.708Z,42.96
2017-07-10T00:53:41.732Z,42.86
2017-07-10T00:54:41.439Z,42.96
2017-07-10T00:55:41.788Z,42.96
2017-07-10T00:56:41.818Z,42.86
2017-07-10T00:57:41.521Z,42.76
2017-07-10T00:58:41.871Z,43.05
2017-07-10T00:59:41.575Z,42.96
2017-07-10T01:00:41.599Z,42.96
2017-07-10T01:01:41.952Z,42.96
2017-07-10T01:02:41.656Z,43.15
2017-07-10T01:03:42.009Z,43.44
2017-07-10T01:04:42.035Z,43.05
2017-07-10T01:05:42.067Z,43.44
2017-07-10T01:06:41.767Z,43.54
2017-07-10T01:07:42.121Z,43.34
2017-07-10T01:08:42.143Z,43.54
2017-07-10T01:09:42.175Z,43.24
2017-07-10T01:10:42.122Z,43.34
2017-07-10T01:11:41.901Z,43.34
2017-07-10T01:12:41.928Z,43.51
2017-07-10T01:13:42.135Z,43.54
2017-07-10T01:14:41.986Z,43.54
2017-07-10T01:15:42.336Z,43.63
2017-07-10T01:16:42.038Z,43.61
2017-07-10T01:17:42.391Z,43.82
2017-07-10T01:18:42.094Z,43.61
2017-07-10T01:19:42.443Z,43.34
2017-07-10T01:20:42.471Z,43.34
2017-07-10T01:21:42.497Z,44.09
2017-07-10T01:22:42.522Z,43.61
2017-07-10T01:23:42.226Z,43.8
2017-07-10T01:24:42.577Z,43.41
2017-07-10T01:25:42.609Z,43.41
2017-07-10T01:26:42.311Z,43.41
2017-07-10T01:27:42.656Z,43.61
2017-07-10T01:28:42.362Z,43.61
2017-07-10T01:29:42.389Z,43.51
2017-07-10T01:30:42.739Z,43.71
2017-07-10T01:31:42.766Z,43.61
2017-07-10T01:32:42.571Z,43.71
2017-07-10T01:33:42.965Z,43.8
2017-07-10T01:34:42.578Z,43.71
2017-07-10T01:35:43.069Z,43.8
2017-07-10T01:36:43.108Z,43.9
2017-07-10T01:37:43.188Z,44.09
2017-07-10T01:38:43.154Z,43.9
2017-07-10T01:39:43.117Z,44.09
2017-07-10T01:40:43.172Z,43.99
2017-07-10T01:41:42.811Z,44.09
2017-07-10T01:42:42.824Z,44.19
2017-07-10T01:43:42.828Z,44.19
2017-07-10T01:44:42.873Z,43.9
2017-07-10T01:45:42.944Z,43.98
2017-07-10T01:46:42.923Z,43.9
2017-07-10T01:47:42.954Z,43.88
2017-07-10T01:48:43.037Z,44.19
2017-07-10T01:49:43.062Z,43.88
2017-07-10T01:50:43.375Z,44.09
2017-07-10T01:51:43.169Z,44.57
2017-07-10T01:52:43.109Z,44.19
2017-07-10T01:53:43.137Z,43.98
2017-07-10T01:54:43.551Z,44.48
2017-07-10T01:55:43.541Z,43.9
2017-07-10T01:56:43.578Z,44.48
2017-07-10T01:57:43.464Z,44.46
2017-07-10T01:58:43.494Z,44.36
2017-07-10T01:59:43.195Z,44.65
2017-07-10T02:00:43.622Z,44.17
2017-07-10T02:01:43.346Z,44.46
2017-07-10T02:02:43.651Z,44.65
2017-07-10T02:03:43.649Z,44.65
2017-07-10T02:04:43.455Z,44.36
2017-07-10T02:05:43.763Z,44.65
2017-07-10T02:06:43.725Z,44.56
2017-07-10T02:07:43.749Z,44.65
2017-07-10T02:08:43.496Z,44.65
2017-07-10T02:09:43.786Z,44.84
2017-07-10T02:10:43.491Z,44.75
2017-07-10T02:11:43.842Z,44.65
2017-07-10T02:12:43.868Z,44.65
2017-07-10T02:13:43.570Z,44.56
2017-07-10T02:14:43.601Z,44.56
2017-07-10T02:15:43.945Z,44.84
2017-07-10T02:16:43.649Z,44.65
2017-07-10T02:17:43.675Z,44.94
2017-07-10T02:18:44.025Z,44.94
2017-07-10T02:19:43.729Z,44.65
2017-07-10T02:20:43.755Z,44.75
2017-07-10T02:21:44.115Z,44.75
2017-07-10T02:22:43.810Z,44.84
2017-07-10T02:23:44.159Z,44.75
2017-07-10T02:24:44.279Z,44.75
2017-07-10T02:25:43.888Z,44.94
2017-07-10T02:26:43.914Z,45.14
2017-07-10T02:27:44.265Z,44.94
2017-07-10T02:28:43.969Z,44.94
2017-07-10T02:29:44.320Z,45.04
2017-07-10T02:30:44.346Z,45.33
2017-07-10T02:31:44.049Z,45.21
2017-07-10T02:32:44.080Z,45.31
2017-07-10T02:33:44.433Z,45.01
2017-07-10T02:34:44.506Z,45.23
2017-07-10T02:35:44.478Z,45.31
2017-07-10T02:36:44.180Z,45.23
2017-07-10T02:37:44.531Z,45.31
2017-07-10T02:38:44.232Z,45.21
2017-07-10T02:39:44.259Z,45.33
2017-07-10T02:40:44.609Z,45.31
2017-07-10T02:41:44.636Z,45.5
2017-07-10T02:42:44.667Z,45.42
2017-07-10T02:43:44.365Z,45.4
2017-07-10T02:44:44.714Z,45.5
2017-07-10T02:45:44.741Z,45.59
2017-07-10T02:46:44.773Z,45.5
2017-07-10T02:47:44.800Z,45.59
2017-07-10T02:48:44.577Z,45.5
2017-07-10T02:49:44.850Z,45.5
2017-07-10T02:50:44.551Z,45.59
2017-07-10T02:51:44.905Z,45.5
2017-07-10T02:52:44.932Z,45.59
2017-07-10T02:53:44.959Z,45.59
2017-07-10T02:54:44.986Z,45.59
2017-07-10T02:55:44.681Z,45.69
2017-07-10T02:56:44.710Z,45.69
2017-07-10T02:57:45.061Z,45.79
2017-07-10T02:58:45.113Z,45.69
2017-07-10T02:59:45.115Z,45.69
2017-07-10T03:00:45.258Z,45.59
2017-07-10T03:01:45.163Z,45.59
2017-07-10T03:02:44.867Z,45.59
2017-07-10T03:03:44.893Z,45.59
2017-07-10T03:04:45.246Z,45.69
2017-07-10T03:05:45.270Z,45.79
2017-07-10T03:06:45.296Z,45.89
2017-07-10T03:07:45.323Z,45.69
2017-07-10T03:08:45.023Z,45.89
2017-07-10T03:09:45.054Z,45.89
2017-07-10T03:10:45.077Z,45.98
2017-07-10T03:11:45.171Z,45.98
2017-07-10T03:12:45.457Z,46.08
2017-07-10T03:13:45.481Z,46.08
2017-07-10T03:14:45.507Z,46.17
2017-07-10T03:15:45.245Z,45.98
2017-07-10T03:16:45.558Z,46.08
2017-07-10T03:17:45.260Z,46.37
2017-07-10T03:18:45.288Z,46.27
2017-07-10T03:19:45.641Z,46.27
2017-07-10T03:20:45.662Z,46.17
2017-07-10T03:21:45.691Z,46.08
2017-07-10T03:22:45.421Z,46.27
2017-07-10T03:23:45.421Z,46.37
2017-07-10T03:24:45.767Z,46.37
2017-07-10T03:25:45.794Z,46.47
2017-07-10T03:26:45.820Z,46.47
2017-07-10T03:27:45.524Z,46.47
2017-07-10T03:28:45.875Z,46.66
2017-07-10T03:29:45.905Z,46.56
2017-07-10T03:30:45.927Z,46.56
2017-07-10T03:31:45.961Z,46.66
2017-07-10T03:32:45.978Z,46.66
2017-07-10T03:33:45.679Z,46.66
2017-07-10T03:34:45.703Z,46.75
2017-07-10T03:35:46.055Z,46.75
2017-07-10T03:36:45.757Z,46.66
2017-07-10T03:37:46.110Z,46.75
2017-07-10T03:38:45.809Z,46.66
2017-07-10T03:39:46.163Z,46.66
2017-07-10T03:40:46.187Z,46.66
2017-07-10T03:41:45.888Z,46.73
2017-07-10T03:42:46.256Z,46.56
2017-07-10T03:43:46.276Z,46.75
2017-07-10T03:44:46.291Z,46.73
2017-07-10T03:45:46.330Z,46.75
2017-07-10T03:46:46.343Z,46.73
2017-07-10T03:47:46.367Z,46.75
2017-07-10T03:48:46.395Z,46.73
2017-07-10T03:49:46.421Z,46.92
2017-07-10T03:50:46.444Z,46.83
2017-07-10T03:51:46.151Z,46.64
2017-07-10T03:52:46.500Z,47.12
2017-07-10T03:53:46.529Z,46.92
2017-07-10T03:54:46.552Z,47.05
2017-07-10T03:55:46.576Z,46.95
2017-07-10T03:56:46.280Z,47.05
2017-07-10T03:57:46.631Z,46.92
2017-07-10T03:58:46.661Z,47.02
2017-07-10T03:59:46.357Z,47.24
2017-07-10T04:00:46.705Z,47.5
2017-07-10T04:01:46.739Z,47.41
2017-07-10T04:02:46.760Z,47.41
2017-07-10T04:03:46.782Z,47.43
2017-07-10T04:04:46.811Z,47.41
2017-07-10T04:05:46.840Z,47.6
2017-07-10T04:06:46.861Z,47.53
2017-07-10T04:07:46.891Z,47.53
2017-07-10T04:08:46.920Z,47.81
2017-07-10T04:09:46.948Z,47.6
2017-07-10T04:10:46.642Z,47.89
2017-07-10T04:11:46.995Z,48.18
2017-07-10T04:12:46.695Z,48.18
2017-07-10T04:13:46.719Z,48.66
2017-07-10T04:14:46.747Z,48.57
2017-07-10T04:15:47.143Z,48.49
2017-07-10T04:16:47.212Z,48.76
2017-07-10T04:17:46.826Z,48.08
2017-07-10T04:18:47.219Z,48.57
2017-07-10T04:19:47.209Z,48.57
2017-07-10T04:20:47.025Z,48.86
2017-07-10T04:21:47.028Z,48.86
2017-07-10T04:22:47.066Z,48.57
2017-07-10T04:23:47.071Z,48.76
2017-07-10T04:24:47.562Z,48.95
2017-07-10T04:25:47.561Z,48.95
2017-07-10T04:26:47.197Z,48.47
2017-07-10T04:27:47.574Z,48.47
2017-07-10T04:28:47.653Z,48.57
2017-07-10T04:29:47.564Z,48.76
2017-07-10T04:30:47.660Z,48.76
2017-07-10T04:31:47.660Z,48.37
2017-07-10T04:32:47.658Z,48.57
2017-07-10T04:33:47.242Z,48.66
2017-07-10T04:34:47.596Z,48.57
2017-07-10T04:35:47.617Z,48.66
2017-07-10T04:36:47.319Z,48.86
2017-07-10T04:37:47.668Z,48.76
2017-07-10T04:38:47.699Z,48.95
2017-07-10T04:39:47.414Z,49.44
2017-07-10T04:40:47.747Z,48.95
2017-07-10T04:41:47.773Z,49.34
2017-07-10T04:42:47.800Z,49.24
2017-07-10T04:43:47.828Z,49.44
2017-07-10T04:44:47.527Z,49.63
2017-07-10T04:45:47.875Z,49.7
2017-07-10T04:46:47.931Z,49.53
2017-07-10T04:47:47.930Z,49.73
2017-07-10T04:48:47.953Z,49.73
2017-07-10T04:49:47.980Z,49.82
2017-07-10T04:50:47.679Z,50.5
2017-07-10T04:51:48.033Z,49.92
2017-07-10T04:52:48.058Z,50.11
2017-07-10T04:53:48.080Z,50.31
2017-07-10T04:54:48.107Z,49.92
2017-07-10T04:55:48.135Z,50.09
2017-07-10T04:56:48.159Z,50.28
2017-07-10T04:57:48.186Z,50.28
2017-07-10T04:58:48.211Z,50.28
2017-07-10T04:59:47.914Z,50.38
2017-07-10T05:00:48.262Z,50.18
2017-07-10T05:01:48.302Z,50.67
2017-07-10T05:02:48.313Z,51.05
2017-07-10T05:03:48.344Z,50.86
2017-07-10T05:04:48.370Z,50.86
2017-07-10T05:05:48.391Z,50.67
2017-07-10T05:06:48.093Z,50.76
2017-07-10T05:07:48.119Z,50.86
2017-07-10T05:08:48.470Z,50.86
2017-07-10T05:09:48.173Z,50.96
2017-07-10T05:10:48.522Z,50.38
2017-07-10T05:11:48.543Z,51.15
2017-07-10T05:12:48.572Z,51.25
2017-07-10T05:13:48.597Z,51.05
2017-07-10T05:14:48.624Z,51.34
2017-07-10T05:15:48.649Z,50.96
2017-07-10T05:16:48.676Z,51.44
2017-07-10T05:17:48.700Z,51.53
2017-07-10T05:18:48.720Z,51.73
2017-07-10T05:19:48.752Z,51.53
2017-07-10T05:20:48.454Z,51.63
2017-07-10T05:21:48.798Z,51.73
2017-07-10T05:22:48.823Z,51.82
2017-07-10T05:23:48.852Z,51.82
2017-07-10T05:24:48.877Z,51.63
2017-07-10T05:25:48.918Z,51.53
2017-07-10T05:26:48.606Z,51.82
2017-07-10T05:27:48.969Z,52.11
2017-07-10T05:28:48.981Z,52.21
2017-07-10T05:29:49.007Z,51.82
2017-07-10T05:30:48.705Z,52.11
2017-07-10T05:31:49.059Z,52.11
2017-07-10T05:32:49.087Z,51.92
2017-07-10T05:33:48.876Z,51.92
2017-07-10T05:34:49.137Z,51.92
2017-07-10T05:35:48.837Z,52.01
2017-07-10T05:36:48.861Z,51.92
2017-07-10T05:37:48.888Z,51.92
2017-07-10T05:38:48.914Z,52.21
2017-07-10T05:39:48.938Z,52.01
2017-07-10T05:40:48.963Z,52.31
2017-07-10T05:41:49.314Z,52.4
2017-07-10T05:42:49.016Z,52.5
2017-07-10T05:43:49.419Z,52.5
2017-07-10T05:44:49.446Z,52.5
2017-07-10T05:45:49.414Z,52.4
2017-07-10T05:46:49.443Z,52.5
2017-07-10T05:47:49.141Z,52.79
2017-07-10T05:48:49.492Z,52.89
2017-07-10T05:49:49.520Z,52.79
2017-07-10T05:50:49.545Z,52.59
2017-07-10T05:51:49.571Z,52.69
2017-07-10T05:52:49.596Z,52.89
2017-07-10T05:53:49.628Z,52.59
2017-07-10T05:54:49.323Z,52.69
2017-07-10T05:55:49.675Z,53.17
2017-07-10T05:56:49.706Z,52.69
2017-07-10T05:57:49.725Z,52.79
2017-07-10T05:58:49.755Z,52.98
2017-07-10T05:59:49.777Z,53.08
2017-07-10T06:00:49.802Z,52.79
2017-07-10T06:01:49.499Z,52.98
2017-07-10T06:02:49.853Z,52.89
2017-07-10T06:03:49.553Z,52.79
2017-07-10T06:04:49.579Z,52.79
2017-07-10T06:05:49.924Z,52.89
2017-07-10T06:06:49.953Z,52.79
2017-07-10T06:07:49.977Z,52.89
2017-07-10T06:08:50.007Z,53.08
2017-07-10T06:09:50.030Z,52.79
2017-07-10T06:10:49.731Z,52.69
2017-07-10T06:11:49.757Z,52.89
2017-07-10T06:12:50.116Z,53.17
2017-07-10T06:13:49.860Z,52.89
2017-07-10T06:14:49.856Z,52.89
2017-07-10T06:15:50.185Z,52.98
2017-07-10T06:16:50.212Z,53.08
2017-07-10T06:17:49.909Z,53.08
2017-07-10T06:18:50.267Z,53.37
2017-07-10T06:19:50.303Z,53.01
2017-07-10T06:20:50.314Z,52.62
2017-07-10T06:21:50.010Z,52.91
2017-07-10T06:22:50.359Z,52.91
2017-07-10T06:23:50.064Z,52.62
2017-07-10T06:24:50.410Z,52.72
2017-07-10T06:25:50.115Z,52.62
2017-07-10T06:26:50.468Z,52.72
2017-07-10T06:27:50.489Z,52.91
2017-07-10T06:28:50.190Z,53.17
2017-07-10T06:29:50.536Z,52.98
2017-07-10T06:30:50.242Z,53.01
2017-07-10T06:31:50.595Z,53.11
2017-07-10T06:32:50.332Z,53.2
2017-07-10T06:33:50.646Z,53.2
2017-07-10T06:34:50.346Z,53.01
2017-07-10T06:35:50.697Z,52.91
2017-07-10T06:36:50.448Z,53.11
2017-07-10T06:37:50.423Z,53.47
2017-07-10T06:38:50.770Z,53.39
2017-07-10T06:39:50.922Z,53.3
2017-07-10T06:40:50.821Z,53.2
2017-07-10T06:41:50.523Z,52.91
2017-07-10T06:42:50.548Z,53.39
2017-07-10T06:43:50.901Z,53.39
2017-07-10T06:44:50.926Z,52.91
2017-07-10T06:45:50.951Z,53.2
2017-07-10T06:46:50.651Z,53.11
2017-07-10T06:47:50.680Z,52.91
2017-07-10T06:48:51.029Z,52.91
2017-07-10T06:49:50.728Z,53.3
2017-07-10T06:50:51.078Z,53.39
2017-07-10T06:51:50.812Z,53.3
2017-07-10T06:52:50.819Z,53.01
2017-07-10T06:53:51.228Z,53.69
2017-07-10T06:54:51.186Z,53.59
2017-07-10T06:55:51.209Z,53.78
2017-07-10T06:56:51.232Z,53.01
2017-07-10T06:57:50.976Z,52.91
2017-07-10T06:58:51.292Z,53.11
2017-07-10T06:59:51.323Z,53.49
2017-07-10T07:00:51.336Z,53.97
2017-07-10T07:01:51.366Z,53.97
2017-07-10T07:02:51.396Z,53.59
2017-07-10T07:03:51.423Z,53.78
2017-07-10T07:04:51.111Z,53.97
2017-07-10T07:05:51.508Z,54.07
2017-07-10T07:06:51.492Z,54.75
2017-07-10T07:07:51.191Z,54.75
2017-07-10T07:08:51.545Z,54.84
2017-07-10T07:09:51.567Z,55.33
2017-07-10T07:10:51.608Z,55.13
2017-07-10T07:11:51.633Z,55.33
2017-07-10T07:12:51.762Z,55.62
2017-07-10T07:13:51.792Z,56
2017-07-10T07:14:51.477Z,56.07
2017-07-10T07:15:51.632Z,55.71
2017-07-10T07:16:51.627Z,55.9
2017-07-10T07:17:51.878Z,55.9
2017-07-10T07:18:51.800Z,55.81
2017-07-10T07:19:51.821Z,56.2
2017-07-10T07:20:51.645Z,55.98
2017-07-10T07:21:51.550Z,55.42
2017-07-10T07:22:51.901Z,55.4
2017-07-10T07:23:51.926Z,55.3
2017-07-10T07:24:51.625Z,55.78
2017-07-10T07:25:51.979Z,55.59
2017-07-10T07:26:52.011Z,55.78
2017-07-10T07:27:51.707Z,55.78
2017-07-10T07:28:51.731Z,56.46
2017-07-10T07:29:52.080Z,56.56
2017-07-10T07:30:51.783Z,55.88
2017-07-10T07:31:52.152Z,56.36
2017-07-10T07:32:52.290Z,56.46
2017-07-10T07:33:52.199Z,56.56
2017-07-10T07:34:52.209Z,56.46
2017-07-10T07:35:51.909Z,56.56
2017-07-10T07:36:52.262Z,55.88
2017-07-10T07:37:51.962Z,56.56
2017-07-10T07:38:52.422Z,56.56
2017-07-10T07:39:52.433Z,56.56
2017-07-10T07:40:52.038Z,56.94
2017-07-10T07:41:52.390Z,56.65
2017-07-10T07:42:52.416Z,56.07
2017-07-10T07:43:52.115Z,55.98
2017-07-10T07:44:52.463Z,56.16
2017-07-10T07:45:52.166Z,56.56
2017-07-10T07:46:52.193Z,56.36
2017-07-10T07:47:52.572Z,56.94
2017-07-10T07:48:52.243Z,56.56
2017-07-10T07:49:52.267Z,56.36
2017-07-10T07:50:52.292Z,56.46
2017-07-10T07:51:52.317Z,56.36
2017-07-10T07:52:52.668Z,55.88
2017-07-10T07:53:52.707Z,55.88
2017-07-10T07:54:52.394Z,56.26
2017-07-10T07:55:52.749Z,56.36
2017-07-10T07:56:52.774Z,56.46
2017-07-10T07:57:52.922Z,56.16
2017-07-10T07:58:52.496Z,55.68
2017-07-10T07:59:52.521Z,55.88
2017-07-10T08:00:52.547Z,55.49
2017-07-10T08:01:52.577Z,55.78
2017-07-10T08:02:52.604Z,55.49
2017-07-10T08:03:52.626Z,56.26
2017-07-10T08:04:52.771Z,55.49
2017-07-10T08:05:52.678Z,55.78
2017-07-10T08:06:53.028Z,55.98
2017-07-10T08:07:53.052Z,55.78
2017-07-10T08:08:53.076Z,56.07
2017-07-10T08:09:53.107Z,55.98
2017-07-10T08:10:53.131Z,55.98
2017-07-10T08:11:52.833Z,55.4
2017-07-10T08:12:52.901Z,55.49
2017-07-10T08:13:53.210Z,55.4
2017-07-10T08:14:53.228Z,56.07
2017-07-10T08:15:53.270Z,55.59
2017-07-10T08:16:52.956Z,56.07
2017-07-10T08:17:53.304Z,56.07
2017-07-10T08:18:53.331Z,55.68
2017-07-10T08:19:53.362Z,55.98
2017-07-10T08:20:53.380Z,55.88
2017-07-10T08:21:53.084Z,55.88
2017-07-10T08:22:53.433Z,55.98
2017-07-10T08:23:53.136Z,55.98
2017-07-10T08:24:53.486Z,55.98
2017-07-10T08:25:53.188Z,55.68
2017-07-10T08:26:53.537Z,56.36
2017-07-10T08:27:53.567Z,56.36
2017-07-10T08:28:53.262Z,56.26
2017-07-10T08:29:53.290Z,56.36
2017-07-10T08:30:53.312Z,56.84
2017-07-10T08:31:53.742Z,56.46
2017-07-10T08:32:53.686Z,57.04
2017-07-10T08:33:53.393Z,57.52
2017-07-10T08:34:53.737Z,57.52
2017-07-10T08:35:53.772Z,57.81
2017-07-10T08:36:53.788Z,57.42
2017-07-10T08:37:53.814Z,57.52
2017-07-10T08:38:53.846Z,57.9
2017-07-10T08:39:53.878Z,57.62
2017-07-10T08:40:53.890Z,57.9
2017-07-10T08:41:53.612Z,57.42
2017-07-10T08:42:53.945Z,57.84
2017-07-10T08:43:53.975Z,57.84
2017-07-10T08:44:53.674Z,57.54
2017-07-10T08:45:54.018Z,57.54
2017-07-10T08:46:54.057Z,56.96
2017-07-10T08:47:54.166Z,57.84
2017-07-10T08:48:54.226Z,57.35
2017-07-10T08:49:54.027Z,57.16
2017-07-10T08:50:54.291Z,56.96
2017-07-10T08:51:53.972Z,57.48
2017-07-10T08:52:54.296Z,56.9
2017-07-10T08:53:53.902Z,56.99
2017-07-10T08:54:54.110Z,57.19
2017-07-10T08:55:54.361Z,57.19
2017-07-10T08:56:54.430Z,56.99
2017-07-10T08:57:54.429Z,57.29
2017-07-10T08:58:54.123Z,57.09
2017-07-10T08:59:54.531Z,56.9
2017-07-10T09:00:54.480Z,57.09
2017-07-10T09:01:54.506Z,56.93
2017-07-10T09:02:54.184Z,56.71
2017-07-10T09:03:54.163Z,56.83
2017-07-10T09:04:54.514Z,56.93
2017-07-10T09:05:54.542Z,57.21
2017-07-10T09:06:54.566Z,56.63
2017-07-10T09:07:54.588Z,56.45
2017-07-10T09:08:54.615Z,56.83
2017-07-10T09:09:54.638Z,56.93
2017-07-10T09:10:54.342Z,56.45
2017-07-10T09:11:54.695Z,56.63
2017-07-10T09:12:54.722Z,56.86
2017-07-10T09:13:54.769Z,56.86
2017-07-10T09:14:54.449Z,56.67
2017-07-10T09:15:54.907Z,57.15
2017-07-10T09:16:54.934Z,57.34
2017-07-10T09:17:54.932Z,57.34
2017-07-10T09:18:54.878Z,57.34
2017-07-10T09:19:54.915Z,57.66
2017-07-10T09:20:54.927Z,57.82
2017-07-10T09:21:54.961Z,57.37
2017-07-10T09:22:54.983Z,57.86
2017-07-10T09:23:55.008Z,57.95
2017-07-10T09:24:54.710Z,57.37
2017-07-10T09:25:55.058Z,57.08
2017-07-10T09:26:55.086Z,57.08
2017-07-10T09:27:55.113Z,56.98
2017-07-10T09:28:54.814Z,56.6
2017-07-10T09:29:54.840Z,56.11
2017-07-10T09:30:54.864Z,56.52
2017-07-10T09:31:55.221Z,56.62
2017-07-10T09:32:54.920Z,56.14
2017-07-10T09:33:55.272Z,56.52
2017-07-10T09:34:55.292Z,56.43
2017-07-10T09:35:55.323Z,56.43
2017-07-10T09:36:55.350Z,56.07
2017-07-10T09:37:55.375Z,56.65
2017-07-10T09:38:55.402Z,55.88
2017-07-10T09:39:55.448Z,56.56
2017-07-10T09:40:55.462Z,57.17
2017-07-10T09:41:55.482Z,56.85
2017-07-10T09:42:55.183Z,56
2017-07-10T09:43:55.209Z,56.2
2017-07-10T09:44:55.239Z,56.39
2017-07-10T09:45:55.586Z,56.49
2017-07-10T09:46:55.613Z,56.2
2017-07-10T09:47:55.644Z,54.77
2017-07-10T09:48:55.673Z,54.58
2017-07-10T09:49:55.709Z,54.09
2017-07-10T09:50:55.720Z,55.44
2017-07-10T09:51:55.751Z,55.06
2017-07-10T09:52:55.450Z,54.28
2017-07-10T09:53:55.807Z,53.92
2017-07-10T09:54:55.506Z,53.63
2017-07-10T09:55:55.861Z,53.92
2017-07-10T09:56:55.560Z,54.9
2017-07-10T09:57:55.586Z,54.6
2017-07-10T09:58:55.939Z,55.02
2017-07-10T09:59:55.641Z,55.08
2017-07-10T10:00:55.997Z,55.41
2017-07-10T10:01:55.695Z,54.14
2017-07-10T10:02:55.724Z,53.75
2017-07-10T10:03:55.752Z,53.47
2017-07-10T10:04:55.867Z,53.39
2017-07-10T10:05:56.130Z,53.2
2017-07-10T10:06:56.154Z,53.1
2017-07-10T10:07:56.280Z,53.2
2017-07-10T10:08:55.888Z,52.84
2017-07-10T10:09:56.242Z,52.94
2017-07-10T10:10:56.271Z,52.86
2017-07-10T10:11:55.970Z,52.94
2017-07-10T10:12:56.323Z,53.06
2017-07-10T10:13:56.348Z,52.74
2017-07-10T10:14:56.381Z,52.76
2017-07-10T10:15:56.083Z,52.47
2017-07-10T10:16:56.435Z,52.37
2017-07-10T10:17:56.189Z,51.92
2017-07-10T10:18:56.487Z,52.11
2017-07-10T10:19:56.515Z,52.31
2017-07-10T10:20:56.219Z,51.82
2017-07-10T10:21:56.578Z,51.53
2017-07-10T10:22:56.602Z,51.53
2017-07-10T10:23:56.305Z,52.01
2017-07-10T10:24:56.661Z,51.75
2017-07-10T10:25:56.692Z,51.94
2017-07-10T10:26:56.714Z,52.04
2017-07-10T10:27:56.417Z,51.65
2017-07-10T10:28:56.772Z,51.07
2017-07-10T10:29:56.796Z,51.17
2017-07-10T10:30:56.825Z,51.26
2017-07-10T10:31:56.854Z,51.36
2017-07-10T10:32:56.885Z,51.36
2017-07-10T10:33:56.913Z,51.09
2017-07-10T10:34:56.936Z,50.8
2017-07-10T10:35:56.647Z,50.9
2017-07-10T10:36:57.002Z,51.39
2017-07-10T10:37:57.029Z,50.8
2017-07-10T10:38:57.057Z,50.8
2017-07-10T10:39:56.760Z,50.63
2017-07-10T10:40:57.109Z,50.41
2017-07-10T10:41:56.818Z,50.14
2017-07-10T10:42:56.847Z,50.14
2017-07-10T10:43:56.890Z,50.14
2017-07-10T10:44:57.227Z,49.95
2017-07-10T10:45:56.931Z,50.04
2017-07-10T10:46:56.966Z,50.07
2017-07-10T10:47:57.316Z,49.68
2017-07-10T10:48:57.022Z,49.39
2017-07-10T10:49:57.379Z,49.19
2017-07-10T10:50:57.406Z,49.39
2017-07-10T10:51:57.104Z,49.39
2017-07-10T10:52:57.463Z,49.49
2017-07-10T10:53:57.166Z,49.39
2017-07-10T10:54:57.520Z,49.19
2017-07-10T10:55:57.550Z,49
2017-07-10T10:56:57.254Z,49.12
2017-07-10T10:57:57.605Z,48.63
2017-07-10T10:58:57.310Z,49.22
2017-07-10T10:59:57.342Z,48.44
2017-07-10T11:00:57.472Z,48.93
2017-07-10T11:01:57.721Z,49.02
2017-07-10T11:02:57.757Z,48.83
2017-07-10T11:03:57.462Z,48.63
2017-07-10T11:04:57.820Z,48.27
2017-07-10T11:05:57.842Z,47.97
2017-07-10T11:06:57.871Z,47.97
2017-07-10T11:07:57.906Z,48.07
2017-07-10T11:08:57.608Z,47.88
2017-07-10T11:09:57.963Z,47.8
2017-07-10T11:10:57.668Z,48
2017-07-10T11:11:58.020Z,48.19
2017-07-10T11:12:58.056Z,47.8
2017-07-10T11:13:57.758Z,48
2017-07-10T11:14:58.047Z,47.61
2017-07-10T11:15:58.231Z,47.51
2017-07-10T11:16:58.290Z,47.41
2017-07-10T11:17:58.004Z,47.73
2017-07-10T11:18:58.029Z,47.53
2017-07-10T11:19:58.038Z,46.75
2017-07-10T11:20:57.969Z,46.85
2017-07-10T11:21:58.489Z,46.88
2017-07-10T11:22:58.353Z,46.58
2017-07-10T11:23:58.381Z,46.29
2017-07-10T11:24:58.415Z,46.09
2017-07-10T11:25:58.121Z,45.92
2017-07-10T11:26:58.477Z,45.92
2017-07-10T11:27:58.508Z,45.82
2017-07-10T11:28:58.537Z,45.55
2017-07-10T11:29:58.241Z,45.26
2017-07-10T11:30:58.639Z,44.77
2017-07-10T11:31:58.660Z,44.67
2017-07-10T11:32:58.335Z,44.49
2017-07-10T11:33:58.692Z,44.3
2017-07-10T11:34:58.806Z,44.1
2017-07-10T11:35:58.826Z,44.03
2017-07-10T11:36:58.782Z,43.54
2017-07-10T11:37:58.815Z,43.24
2017-07-10T11:38:58.521Z,43.05
2017-07-10T11:39:58.871Z,42.88
2017-07-10T11:40:58.905Z,42.58
2017-07-10T11:41:58.612Z,41.8
2017-07-10T11:42:58.968Z,41.89
2017-07-10T11:43:58.996Z,41.62
2017-07-10T11:44:59.033Z,41.52
2017-07-10T11:45:58.755Z,41.23
2017-07-10T11:46:59.095Z,41.13
2017-07-10T11:47:58.802Z,41.13
2017-07-10T11:48:58.834Z,41.13
2017-07-10T11:49:58.863Z,40.74
2017-07-10T11:50:59.219Z,41.23
2017-07-10T11:51:58.925Z,41.52
2017-07-10T11:52:58.961Z,41.72
2017-07-10T11:53:59.314Z,41.82
2017-07-10T11:54:59.345Z,41.62
2017-07-10T11:55:59.382Z,41.62
2017-07-10T11:56:59.083Z,41.52
2017-07-10T11:57:59.438Z,41.55
2017-07-10T11:58:59.150Z,41.35
2017-07-10T11:59:59.181Z,40.66
2017-07-10T12:00:59.215Z,40.86
2017-07-10T12:01:59.245Z,40.58
2017-07-10T12:02:59.601Z,40.29
2017-07-10T12:03:59.306Z,40.58
2017-07-10T12:04:59.667Z,39.41
2017-07-10T12:05:59.372Z,39.31
2017-07-10T12:06:59.788Z,39.23
2017-07-10T12:07:59.759Z,39.33
2017-07-10T12:08:59.466Z,39.14
2017-07-10T12:09:59.829Z,38.93
2017-07-10T12:10:59.858Z,38.74
2017-07-10T12:11:59.890Z,38.27
2017-07-10T12:12:59.598Z,38.07
2017-07-10T12:13:59.951Z,37.29
2017-07-10T12:14:59.661Z,37.48
2017-07-10T12:16:00.016Z,37.48
2017-07-10T12:16:59.726Z,37.48
2017-07-10T12:18:00.081Z,37.38
2017-07-10T12:18:59.798Z,37.09
2017-07-10T12:19:59.823Z,37.09
2017-07-10T12:21:00.266Z,36.99
2017-07-10T12:22:00.212Z,36.9
2017-07-10T12:22:59.921Z,36.7
2017-07-10T12:23:59.956Z,36.78
2017-07-10T12:24:59.988Z,36.88
2017-07-10T12:26:00.022Z,36.68
2017-07-10T12:27:00.053Z,36.68
2017-07-10T12:28:00.417Z,36.68
2017-07-10T12:29:00.456Z,37.17
2017-07-10T12:30:00.504Z,37.05
2017-07-10T12:31:00.183Z,37.15
2017-07-10T12:32:00.218Z,37.05
2017-07-10T12:33:00.249Z,37.35
2017-07-10T12:34:00.612Z,37.45
2017-07-10T12:35:00.313Z,38.41
2017-07-10T12:36:00.397Z,38.12
2017-07-10T12:37:00.380Z,39.31
2017-07-10T12:38:00.485Z,39.49
2017-07-10T12:39:00.765Z,40.08
2017-07-10T12:40:00.804Z,40.56
2017-07-10T12:41:00.835Z,40.56
2017-07-10T12:42:00.873Z,41.33
2017-07-10T12:43:00.577Z,41.72
2017-07-10T12:44:00.940Z,41.82
2017-07-10T12:45:00.969Z,42.8
2017-07-10T12:46:00.999Z,43.09
2017-07-10T12:47:00.704Z,43.07
2017-07-10T12:48:00.740Z,42.97
2017-07-10T12:49:01.094Z,43.46
2017-07-10T12:50:00.804Z,44.15
2017-07-10T12:51:00.837Z,43.93
2017-07-10T12:52:01.196Z,44.23
2017-07-10T12:53:00.901Z,44.42
2017-07-10T12:54:01.259Z,44.52
2017-07-10T12:55:01.291Z,44.81
2017-07-10T12:56:01.327Z,45.1